sensor_id;sensor_type;location;lat;lon;timestamp;temperature;humidity
2226;DHT22;1119;48.288;8.726;2023-09-08T00:00:31;20.80;93.80
2226;DHT22;1119;48.288;8.726;2023-09-08T00:02:59;20.70;94.10
2226;DHT22;1119;48.288;8.726;2023-09-08T00:05:27;20.60;94.20
2226;DHT22;1119;48.288;8.726;2023-09-08T00:07:54;20.60;94.40
2226;DHT22;1119;48.288;8.726;2023-09-08T00:10:21;20.50;94.40
2226;DHT22;1119;48.288;8.726;2023-09-08T00:12:49;20.30;94.50
2226;DHT22;1119;48.288;8.726;2023-09-08T00:15:16;20.30;94.60
2226;DHT22;1119;48.288;8.726;2023-09-08T00:17:43;20.10;94.70
2226;DHT22;1119;48.288;8.726;2023-09-08T00:20:14;20.10;94.80
2226;DHT22;1119;48.288;8.726;2023-09-08T00:22:42;20.10;94.90
2226;DHT22;1119;48.288;8.726;2023-09-08T00:25:09;20.00;95.00
2226;DHT22;1119;48.288;8.726;2023-09-08T00:27:36;19.90;95.20
2226;DHT22;1119;48.288;8.726;2023-09-08T00:30:05;20.00;95.10
2226;DHT22;1119;48.288;8.726;2023-09-08T00:32:33;19.90;95.00
2226;DHT22;1119;48.288;8.726;2023-09-08T00:35:00;19.90;94.90
2226;DHT22;1119;48.288;8.726;2023-09-08T00:37:29;20.00;94.70
2226;DHT22;1119;48.288;8.726;2023-09-08T00:39:56;20.00;94.70
2226;DHT22;1119;48.288;8.726;2023-09-08T00:42:24;20.00;94.50
2226;DHT22;1119;48.288;8.726;2023-09-08T00:44:51;20.00;94.60
2226;DHT22;1119;48.288;8.726;2023-09-08T00:47:18;20.00;94.50
2226;DHT22;1119;48.288;8.726;2023-09-08T00:49:45;20.00;94.60
2226;DHT22;1119;48.288;8.726;2023-09-08T00:52:22;20.10;94.50
2226;DHT22;1119;48.288;8.726;2023-09-08T00:54:52;20.10;94.80
2226;DHT22;1119;48.288;8.726;2023-09-08T00:57:19;20.20;94.70
2226;DHT22;1119;48.288;8.726;2023-09-08T00:59:46;20.20;94.80
2226;DHT22;1119;48.288;8.726;2023-09-08T01:02:14;20.10;95.40
2226;DHT22;1119;48.288;8.726;2023-09-08T01:04:44;20.10;96.10
2226;DHT22;1119;48.288;8.726;2023-09-08T01:07:11;20.00;96.80
2226;DHT22;1119;48.288;8.726;2023-09-08T01:09:40;20.00;97.60
2226;DHT22;1119;48.288;8.726;2023-09-08T01:12:11;19.90;98.00
2226;DHT22;1119;48.288;8.726;2023-09-08T01:14:38;19.90;98.20
2226;DHT22;1119;48.288;8.726;2023-09-08T01:17:05;19.80;98.70
2226;DHT22;1119;48.288;8.726;2023-09-08T01:19:33;19.80;98.80
2226;DHT22;1119;48.288;8.726;2023-09-08T01:22:20;19.70;99.30
2226;DHT22;1119;48.288;8.726;2023-09-08T01:25:05;19.60;99.90
2226;DHT22;1119;48.288;8.726;2023-09-08T01:27:37;19.60;99.90
2226;DHT22;1119;48.288;8.726;2023-09-08T01:30:06;19.60;99.90
2226;DHT22;1119;48.288;8.726;2023-09-08T01:32:34;19.50;99.90
2226;DHT22;1119;48.288;8.726;2023-09-08T01:35:22;19.50;99.90
2226;DHT22;1119;48.288;8.726;2023-09-08T01:37:50;19.40;99.90
2226;DHT22;1119;48.288;8.726;2023-09-08T01:40:19;19.40;99.90
2226;DHT22;1119;48.288;8.726;2023-09-08T01:42:48;19.40;99.90
2226;DHT22;1119;48.288;8.726;2023-09-08T01:45:36;19.40;99.90
2226;DHT22;1119;48.288;8.726;2023-09-08T01:48:08;19.30;99.90
2226;DHT22;1119;48.288;8.726;2023-09-08T01:50:35;19.30;99.90
2226;DHT22;1119;48.288;8.726;2023-09-08T01:53:03;19.30;99.90
2226;DHT22;1119;48.288;8.726;2023-09-08T01:55:32;19.30;99.90
2226;DHT22;1119;48.288;8.726;2023-09-08T01:57:59;19.30;99.90
2226;DHT22;1119;48.288;8.726;2023-09-08T02:00:27;19.10;99.90
2226;DHT22;1119;48.288;8.726;2023-09-08T02:02:54;19.10;99.90
2226;DHT22;1119;48.288;8.726;2023-09-08T02:05:22;19.10;99.90
2226;DHT22;1119;48.288;8.726;2023-09-08T02:07:51;19.00;99.90
2226;DHT22;1119;48.288;8.726;2023-09-08T02:10:18;18.90;99.90
2226;DHT22;1119;48.288;8.726;2023-09-08T02:12:47;18.90;99.90
2226;DHT22;1119;48.288;8.726;2023-09-08T02:15:16;19.00;99.90
2226;DHT22;1119;48.288;8.726;2023-09-08T02:17:43;18.90;99.90
2226;DHT22;1119;48.288;8.726;2023-09-08T02:20:11;18.90;99.90
2226;DHT22;1119;48.288;8.726;2023-09-08T02:22:38;18.90;99.90
2226;DHT22;1119;48.288;8.726;2023-09-08T02:25:07;18.80;99.90
2226;DHT22;1119;48.288;8.726;2023-09-08T02:27:35;18.80;99.90
2226;DHT22;1119;48.288;8.726;2023-09-08T02:30:05;18.80;99.90
2226;DHT22;1119;48.288;8.726;2023-09-08T02:32:34;18.70;99.90
2226;DHT22;1119;48.288;8.726;2023-09-08T02:35:02;18.70;99.90
2226;DHT22;1119;48.288;8.726;2023-09-08T02:37:30;18.60;99.90
2226;DHT22;1119;48.288;8.726;2023-09-08T02:39:57;18.60;99.90
2226;DHT22;1119;48.288;8.726;2023-09-08T02:42:25;18.60;99.90
2226;DHT22;1119;48.288;8.726;2023-09-08T02:44:55;18.60;99.90
2226;DHT22;1119;48.288;8.726;2023-09-08T02:47:24;18.60;99.90
2226;DHT22;1119;48.288;8.726;2023-09-08T02:49:52;18.60;99.90
2226;DHT22;1119;48.288;8.726;2023-09-08T02:52:19;18.60;99.90
2226;DHT22;1119;48.288;8.726;2023-09-08T02:54:47;18.70;99.90
2226;DHT22;1119;48.288;8.726;2023-09-08T02:57:14;18.70;99.90
2226;DHT22;1119;48.288;8.726;2023-09-08T02:59:41;18.80;99.90
2226;DHT22;1119;48.288;8.726;2023-09-08T03:02:09;18.80;99.90
2226;DHT22;1119;48.288;8.726;2023-09-08T03:04:37;18.80;99.90
2226;DHT22;1119;48.288;8.726;2023-09-08T03:07:05;18.70;99.90
2226;DHT22;1119;48.288;8.726;2023-09-08T03:09:33;18.70;99.90
2226;DHT22;1119;48.288;8.726;2023-09-08T03:12:01;18.60;99.90
2226;DHT22;1119;48.288;8.726;2023-09-08T03:14:29;18.70;99.90
2226;DHT22;1119;48.288;8.726;2023-09-08T03:16:56;18.70;99.90
2226;DHT22;1119;48.288;8.726;2023-09-08T03:19:24;18.70;99.90
2226;DHT22;1119;48.288;8.726;2023-09-08T03:21:53;18.70;99.90
2226;DHT22;1119;48.288;8.726;2023-09-08T03:24:20;18.70;99.90
2226;DHT22;1119;48.288;8.726;2023-09-08T03:26:48;18.70;99.90
2226;DHT22;1119;48.288;8.726;2023-09-08T03:29:15;18.60;99.90
2226;DHT22;1119;48.288;8.726;2023-09-08T03:31:43;18.60;99.90
2226;DHT22;1119;48.288;8.726;2023-09-08T03:34:10;18.60;99.90
2226;DHT22;1119;48.288;8.726;2023-09-08T03:36:39;18.50;99.90
2226;DHT22;1119;48.288;8.726;2023-09-08T03:39:07;18.50;99.90
2226;DHT22;1119;48.288;8.726;2023-09-08T03:41:37;18.50;99.90
2226;DHT22;1119;48.288;8.726;2023-09-08T03:44:05;18.50;99.90
2226;DHT22;1119;48.288;8.726;2023-09-08T03:46:32;18.50;99.90
2226;DHT22;1119;48.288;8.726;2023-09-08T03:49:00;18.50;99.90
2226;DHT22;1119;48.288;8.726;2023-09-08T03:51:28;18.50;99.90
2226;DHT22;1119;48.288;8.726;2023-09-08T03:53:55;18.40;99.90
2226;DHT22;1119;48.288;8.726;2023-09-08T03:56:24;18.40;99.90
2226;DHT22;1119;48.288;8.726;2023-09-08T03:58:52;18.40;99.90
2226;DHT22;1119;48.288;8.726;2023-09-08T04:01:19;18.30;99.90
2226;DHT22;1119;48.288;8.726;2023-09-08T04:03:47;18.30;99.90
2226;DHT22;1119;48.288;8.726;2023-09-08T04:06:15;18.20;99.90
2226;DHT22;1119;48.288;8.726;2023-09-08T04:08:43;18.20;99.90
2226;DHT22;1119;48.288;8.726;2023-09-08T04:11:10;18.20;99.90
2226;DHT22;1119;48.288;8.726;2023-09-08T04:13:39;18.20;99.90
2226;DHT22;1119;48.288;8.726;2023-09-08T04:16:06;18.20;99.90
2226;DHT22;1119;48.288;8.726;2023-09-08T04:18:35;18.20;99.90
2226;DHT22;1119;48.288;8.726;2023-09-08T04:21:02;18.20;99.90
2226;DHT22;1119;48.288;8.726;2023-09-08T04:23:30;18.20;99.90
2226;DHT22;1119;48.288;8.726;2023-09-08T04:25:57;18.20;99.90
2226;DHT22;1119;48.288;8.726;2023-09-08T04:28:25;18.20;99.90
2226;DHT22;1119;48.288;8.726;2023-09-08T04:30:54;18.30;99.90
2226;DHT22;1119;48.288;8.726;2023-09-08T04:33:23;18.30;99.90
2226;DHT22;1119;48.288;8.726;2023-09-08T04:35:50;18.30;99.90
2226;DHT22;1119;48.288;8.726;2023-09-08T04:38:18;18.40;99.90
2226;DHT22;1119;48.288;8.726;2023-09-08T04:40:45;18.40;99.90
2226;DHT22;1119;48.288;8.726;2023-09-08T04:43:14;18.40;99.90
2226;DHT22;1119;48.288;8.726;2023-09-08T04:45:42;18.50;99.90
2226;DHT22;1119;48.288;8.726;2023-09-08T04:48:12;18.50;99.90
2226;DHT22;1119;48.288;8.726;2023-09-08T04:50:40;18.50;99.90
2226;DHT22;1119;48.288;8.726;2023-09-08T04:53:07;18.50;99.90
2226;DHT22;1119;48.288;8.726;2023-09-08T04:55:35;18.50;99.90
2226;DHT22;1119;48.288;8.726;2023-09-08T04:58:04;18.50;99.90
2226;DHT22;1119;48.288;8.726;2023-09-08T05:00:32;18.50;99.90
2226;DHT22;1119;48.288;8.726;2023-09-08T05:02:59;18.50;99.90
2226;DHT22;1119;48.288;8.726;2023-09-08T05:05:28;18.50;99.90
2226;DHT22;1119;48.288;8.726;2023-09-08T05:07:59;18.60;99.90
2226;DHT22;1119;48.288;8.726;2023-09-08T05:10:26;18.60;99.90
2226;DHT22;1119;48.288;8.726;2023-09-08T05:12:54;18.60;99.90
2226;DHT22;1119;48.288;8.726;2023-09-08T05:15:23;18.70;99.90
2226;DHT22;1119;48.288;8.726;2023-09-08T05:17:54;18.70;99.90
2226;DHT22;1119;48.288;8.726;2023-09-08T05:20:23;18.70;99.90
2226;DHT22;1119;48.288;8.726;2023-09-08T05:22:52;18.70;99.90
2226;DHT22;1119;48.288;8.726;2023-09-08T05:25:20;18.70;99.90
2226;DHT22;1119;48.288;8.726;2023-09-08T05:27:47;18.80;99.90
2226;DHT22;1119;48.288;8.726;2023-09-08T05:30:15;18.80;99.90
2226;DHT22;1119;48.288;8.726;2023-09-08T05:32:43;18.80;99.90
2226;DHT22;1119;48.288;8.726;2023-09-08T05:35:11;18.90;99.90
2226;DHT22;1119;48.288;8.726;2023-09-08T05:37:39;19.00;99.90
2226;DHT22;1119;48.288;8.726;2023-09-08T05:40:09;19.00;99.90
2226;DHT22;1119;48.288;8.726;2023-09-08T05:42:36;19.10;99.90
2226;DHT22;1119;48.288;8.726;2023-09-08T05:45:04;19.60;99.90
2226;DHT22;1119;48.288;8.726;2023-09-08T05:47:33;20.40;99.90
2226;DHT22;1119;48.288;8.726;2023-09-08T05:50:02;21.40;99.90
2226;DHT22;1119;48.288;8.726;2023-09-08T05:52:30;22.40;98.90
2226;DHT22;1119;48.288;8.726;2023-09-08T05:54:59;23.30;96.50
2226;DHT22;1119;48.288;8.726;2023-09-08T05:57:28;24.20;94.50
2226;DHT22;1119;48.288;8.726;2023-09-08T05:59:56;25.00;92.40
2226;DHT22;1119;48.288;8.726;2023-09-08T06:02:24;25.60;90.50
2226;DHT22;1119;48.288;8.726;2023-09-08T06:04:52;26.20;87.70
2226;DHT22;1119;48.288;8.726;2023-09-08T06:07:19;26.80;84.60
2226;DHT22;1119;48.288;8.726;2023-09-08T06:09:46;27.30;81.30
2226;DHT22;1119;48.288;8.726;2023-09-08T06:12:14;27.90;78.20
2226;DHT22;1119;48.288;8.726;2023-09-08T06:14:43;28.40;75.60
2226;DHT22;1119;48.288;8.726;2023-09-08T06:17:12;28.90;72.90
2226;DHT22;1119;48.288;8.726;2023-09-08T06:19:39;29.30;70.60
2226;DHT22;1119;48.288;8.726;2023-09-08T06:22:06;29.50;69.40
2226;DHT22;1119;48.288;8.726;2023-09-08T06:24:34;29.90;67.00
2226;DHT22;1119;48.288;8.726;2023-09-08T06:27:02;30.30;64.70
2226;DHT22;1119;48.288;8.726;2023-09-08T06:29:29;30.70;63.00
2226;DHT22;1119;48.288;8.726;2023-09-08T06:31:58;30.90;61.40
2226;DHT22;1119;48.288;8.726;2023-09-08T06:34:26;31.30;59.90
2226;DHT22;1119;48.288;8.726;2023-09-08T06:36:53;31.50;59.00
2226;DHT22;1119;48.288;8.726;2023-09-08T06:39:22;32.00;58.10
2226;DHT22;1119;48.288;8.726;2023-09-08T06:41:52;32.30;56.80
2226;DHT22;1119;48.288;8.726;2023-09-08T06:44:20;32.40;55.80
2226;DHT22;1119;48.288;8.726;2023-09-08T06:46:48;32.30;55.30
2226;DHT22;1119;48.288;8.726;2023-09-08T06:49:17;32.40;55.60
2226;DHT22;1119;48.288;8.726;2023-09-08T06:51:45;32.50;55.30
2226;DHT22;1119;48.288;8.726;2023-09-08T06:54:14;32.70;54.90
2226;DHT22;1119;48.288;8.726;2023-09-08T06:56:43;32.90;54.80
2226;DHT22;1119;48.288;8.726;2023-09-08T06:59:11;33.30;54.40
2226;DHT22;1119;48.288;8.726;2023-09-08T07:01:38;33.80;53.30
2226;DHT22;1119;48.288;8.726;2023-09-08T07:04:06;34.00;52.70
2226;DHT22;1119;48.288;8.726;2023-09-08T07:06:35;34.30;52.20
2226;DHT22;1119;48.288;8.726;2023-09-08T07:09:04;34.60;51.60
2226;DHT22;1119;48.288;8.726;2023-09-08T07:11:32;34.70;51.00
2226;DHT22;1119;48.288;8.726;2023-09-08T07:14:00;34.80;50.90
2226;DHT22;1119;48.288;8.726;2023-09-08T07:16:27;35.10;50.40
2226;DHT22;1119;48.288;8.726;2023-09-08T07:18:55;35.30;50.10
2226;DHT22;1119;48.288;8.726;2023-09-08T07:21:22;35.40;50.10
2226;DHT22;1119;48.288;8.726;2023-09-08T07:23:51;35.50;50.00
2226;DHT22;1119;48.288;8.726;2023-09-08T07:26:19;35.60;49.50
2226;DHT22;1119;48.288;8.726;2023-09-08T07:28:47;35.60;49.40
2226;DHT22;1119;48.288;8.726;2023-09-08T07:31:16;35.50;49.50
2226;DHT22;1119;48.288;8.726;2023-09-08T07:33:46;35.50;49.60
2226;DHT22;1119;48.288;8.726;2023-09-08T07:36:15;35.60;49.40
2226;DHT22;1119;48.288;8.726;2023-09-08T07:38:44;35.70;49.20
2226;DHT22;1119;48.288;8.726;2023-09-08T07:41:39;35.50;49.20
2226;DHT22;1119;48.288;8.726;2023-09-08T07:44:12;35.50;49.30
2226;DHT22;1119;48.288;8.726;2023-09-08T07:46:41;35.50;49.50
2226;DHT22;1119;48.288;8.726;2023-09-08T07:49:10;35.60;49.30
2226;DHT22;1119;48.288;8.726;2023-09-08T07:51:37;35.80;49.10
2226;DHT22;1119;48.288;8.726;2023-09-08T07:54:05;35.90;48.90
2226;DHT22;1119;48.288;8.726;2023-09-08T07:56:32;36.00;48.80
2226;DHT22;1119;48.288;8.726;2023-09-08T07:59:01;35.90;48.60
2226;DHT22;1119;48.288;8.726;2023-09-08T08:01:29;35.60;48.90
2226;DHT22;1119;48.288;8.726;2023-09-08T08:03:56;35.40;49.60
2226;DHT22;1119;48.288;8.726;2023-09-08T08:06:23;35.40;49.40
2226;DHT22;1119;48.288;8.726;2023-09-08T08:08:51;35.40;49.70
2226;DHT22;1119;48.288;8.726;2023-09-08T08:11:18;35.40;49.10
2226;DHT22;1119;48.288;8.726;2023-09-08T08:13:46;35.20;49.60
2226;DHT22;1119;48.288;8.726;2023-09-08T08:16:15;35.10;50.40
2226;DHT22;1119;48.288;8.726;2023-09-08T08:18:42;34.90;50.00
2226;DHT22;1119;48.288;8.726;2023-09-08T08:21:10;34.80;51.00
2226;DHT22;1119;48.288;8.726;2023-09-08T08:23:38;34.60;50.40
2226;DHT22;1119;48.288;8.726;2023-09-08T08:26:06;34.50;50.50
2226;DHT22;1119;48.288;8.726;2023-09-08T08:28:34;34.50;50.80
2226;DHT22;1119;48.288;8.726;2023-09-08T08:31:01;34.40;51.00
2226;DHT22;1119;48.288;8.726;2023-09-08T08:33:31;34.20;50.70
2226;DHT22;1119;48.288;8.726;2023-09-08T08:35:58;34.00;51.40
2226;DHT22;1119;48.288;8.726;2023-09-08T08:38:26;33.50;51.70
2226;DHT22;1119;48.288;8.726;2023-09-08T08:40:53;32.90;53.00
2226;DHT22;1119;48.288;8.726;2023-09-08T08:43:21;32.20;54.00
2226;DHT22;1119;48.288;8.726;2023-09-08T08:45:50;31.70;55.00
2226;DHT22;1119;48.288;8.726;2023-09-08T08:48:20;31.10;55.90
2226;DHT22;1119;48.288;8.726;2023-09-08T08:50:52;30.80;57.20
2226;DHT22;1119;48.288;8.726;2023-09-08T08:53:20;30.40;58.50
2226;DHT22;1119;48.288;8.726;2023-09-08T08:55:49;30.20;58.90
2226;DHT22;1119;48.288;8.726;2023-09-08T08:58:20;30.40;58.10
2226;DHT22;1119;48.288;8.726;2023-09-08T09:00:51;30.40;58.20
2226;DHT22;1119;48.288;8.726;2023-09-08T09:03:20;30.80;57.50
2226;DHT22;1119;48.288;8.726;2023-09-08T09:05:48;30.90;57.30
2226;DHT22;1119;48.288;8.726;2023-09-08T09:08:18;31.00;57.00
2226;DHT22;1119;48.288;8.726;2023-09-08T09:10:46;31.00;55.90
2226;DHT22;1119;48.288;8.726;2023-09-08T09:13:13;31.00;56.20
2226;DHT22;1119;48.288;8.726;2023-09-08T09:15:41;31.30;56.40
2226;DHT22;1119;48.288;8.726;2023-09-08T09:18:10;31.80;55.90
2226;DHT22;1119;48.288;8.726;2023-09-08T09:20:37;32.00;54.70
2226;DHT22;1119;48.288;8.726;2023-09-08T09:23:07;32.00;53.70
2226;DHT22;1119;48.288;8.726;2023-09-08T09:25:37;31.80;54.30
2226;DHT22;1119;48.288;8.726;2023-09-08T09:28:05;31.70;54.80
2226;DHT22;1119;48.288;8.726;2023-09-08T09:30:49;31.80;55.00
2226;DHT22;1119;48.288;8.726;2023-09-08T09:33:18;31.80;55.00
2226;DHT22;1119;48.288;8.726;2023-09-08T09:35:48;31.70;55.30
2226;DHT22;1119;48.288;8.726;2023-09-08T09:38:18;31.50;55.80
2226;DHT22;1119;48.288;8.726;2023-09-08T09:40:48;31.60;56.80
2226;DHT22;1119;48.288;8.726;2023-09-08T09:43:16;31.50;57.00
2226;DHT22;1119;48.288;8.726;2023-09-08T09:45:44;31.70;56.60
2226;DHT22;1119;48.288;8.726;2023-09-08T09:48:12;31.90;56.30
2226;DHT22;1119;48.288;8.726;2023-09-08T09:50:40;31.90;57.20
2226;DHT22;1119;48.288;8.726;2023-09-08T09:53:10;31.90;56.60
2226;DHT22;1119;48.288;8.726;2023-09-08T09:55:40;31.70;56.40
2226;DHT22;1119;48.288;8.726;2023-09-08T09:58:10;31.60;57.40
2226;DHT22;1119;48.288;8.726;2023-09-08T10:00:40;31.70;57.50
2226;DHT22;1119;48.288;8.726;2023-09-08T10:03:11;31.80;57.20
2226;DHT22;1119;48.288;8.726;2023-09-08T10:05:40;31.90;57.50
2226;DHT22;1119;48.288;8.726;2023-09-08T10:08:08;32.00;56.40
2226;DHT22;1119;48.288;8.726;2023-09-08T10:10:36;32.10;56.20
2226;DHT22;1119;48.288;8.726;2023-09-08T10:13:06;32.30;56.00
2226;DHT22;1119;48.288;8.726;2023-09-08T10:15:36;32.20;55.60
2226;DHT22;1119;48.288;8.726;2023-09-08T10:18:05;32.20;55.90
2226;DHT22;1119;48.288;8.726;2023-09-08T10:20:34;32.10;55.00
2226;DHT22;1119;48.288;8.726;2023-09-08T10:23:06;31.70;55.70
2226;DHT22;1119;48.288;8.726;2023-09-08T10:25:44;31.60;56.60
2226;DHT22;1119;48.288;8.726;2023-09-08T10:28:19;31.50;56.80
2226;DHT22;1119;48.288;8.726;2023-09-08T10:30:49;31.10;55.50
2226;DHT22;1119;48.288;8.726;2023-09-08T10:33:18;30.90;57.20
2226;DHT22;1119;48.288;8.726;2023-09-08T10:36:30;31.00;57.60
2226;DHT22;1119;48.288;8.726;2023-09-08T10:39:29;31.20;56.80
2226;DHT22;1119;48.288;8.726;2023-09-08T10:42:21;31.10;58.00
2226;DHT22;1119;48.288;8.726;2023-09-08T10:45:01;31.00;59.30
2226;DHT22;1119;48.288;8.726;2023-09-08T10:47:39;30.90;60.20
2226;DHT22;1119;48.288;8.726;2023-09-08T10:50:16;30.90;58.90
2226;DHT22;1119;48.288;8.726;2023-09-08T10:52:44;31.00;59.70
2226;DHT22;1119;48.288;8.726;2023-09-08T10:55:13;31.10;58.70
2226;DHT22;1119;48.288;8.726;2023-09-08T10:57:44;31.20;58.00
2226;DHT22;1119;48.288;8.726;2023-09-08T11:00:18;31.20;58.50
2226;DHT22;1119;48.288;8.726;2023-09-08T11:02:49;30.90;58.10
2226;DHT22;1119;48.288;8.726;2023-09-08T11:05:17;30.80;59.20
2226;DHT22;1119;48.288;8.726;2023-09-08T11:07:48;30.70;59.90
2226;DHT22;1119;48.288;8.726;2023-09-08T11:10:18;30.90;59.50
2226;DHT22;1119;48.288;8.726;2023-09-08T11:12:45;31.00;58.10
2226;DHT22;1119;48.288;8.726;2023-09-08T11:15:14;31.20;58.70
2226;DHT22;1119;48.288;8.726;2023-09-08T11:17:41;31.30;57.70
2226;DHT22;1119;48.288;8.726;2023-09-08T11:20:11;31.40;57.70
2226;DHT22;1119;48.288;8.726;2023-09-08T11:22:39;31.60;56.50
2226;DHT22;1119;48.288;8.726;2023-09-08T11:25:08;31.60;56.20
2226;DHT22;1119;48.288;8.726;2023-09-08T11:27:37;31.60;56.10
2226;DHT22;1119;48.288;8.726;2023-09-08T11:30:08;31.50;55.40
2226;DHT22;1119;48.288;8.726;2023-09-08T11:32:36;31.30;56.90
2226;DHT22;1119;48.288;8.726;2023-09-08T11:35:04;31.20;57.00
2226;DHT22;1119;48.288;8.726;2023-09-08T11:37:36;31.20;57.20
2226;DHT22;1119;48.288;8.726;2023-09-08T11:40:05;31.10;57.00
2226;DHT22;1119;48.288;8.726;2023-09-08T11:42:38;31.20;57.50
2226;DHT22;1119;48.288;8.726;2023-09-08T11:45:11;31.30;55.40
2226;DHT22;1119;48.288;8.726;2023-09-08T11:47:42;31.40;54.60
2226;DHT22;1119;48.288;8.726;2023-09-08T11:50:10;31.40;54.30
2226;DHT22;1119;48.288;8.726;2023-09-08T11:52:43;31.40;54.20
2226;DHT22;1119;48.288;8.726;2023-09-08T11:55:11;31.50;53.60
2226;DHT22;1119;48.288;8.726;2023-09-08T11:57:40;31.50;53.60
2226;DHT22;1119;48.288;8.726;2023-09-08T12:00:08;31.50;53.10
2226;DHT22;1119;48.288;8.726;2023-09-08T12:02:40;31.50;52.80
2226;DHT22;1119;48.288;8.726;2023-09-08T12:05:11;31.30;53.50
2226;DHT22;1119;48.288;8.726;2023-09-08T12:07:39;31.30;54.50
2226;DHT22;1119;48.288;8.726;2023-09-08T12:10:10;31.40;54.00
2226;DHT22;1119;48.288;8.726;2023-09-08T12:12:42;31.50;53.50
2226;DHT22;1119;48.288;8.726;2023-09-08T12:15:10;31.50;53.20
2226;DHT22;1119;48.288;8.726;2023-09-08T12:17:48;31.40;54.30
2226;DHT22;1119;48.288;8.726;2023-09-08T12:20:17;31.60;52.20
2226;DHT22;1119;48.288;8.726;2023-09-08T12:22:48;31.60;52.20
2226;DHT22;1119;48.288;8.726;2023-09-08T12:25:18;31.80;52.50
2226;DHT22;1119;48.288;8.726;2023-09-08T12:27:46;31.90;52.90
2226;DHT22;1119;48.288;8.726;2023-09-08T12:30:17;32.00;52.70
2226;DHT22;1119;48.288;8.726;2023-09-08T12:32:46;32.10;51.90
2226;DHT22;1119;48.288;8.726;2023-09-08T12:35:20;32.10;51.90
2226;DHT22;1119;48.288;8.726;2023-09-08T12:37:53;32.10;52.50
2226;DHT22;1119;48.288;8.726;2023-09-08T12:40:26;32.20;53.20
2226;DHT22;1119;48.288;8.726;2023-09-08T12:42:54;32.20;52.90
2226;DHT22;1119;48.288;8.726;2023-09-08T12:45:22;32.10;52.40
2226;DHT22;1119;48.288;8.726;2023-09-08T12:47:50;32.10;53.30
2226;DHT22;1119;48.288;8.726;2023-09-08T12:50:17;31.90;51.50
2226;DHT22;1119;48.288;8.726;2023-09-08T12:52:44;31.90;51.10
2226;DHT22;1119;48.288;8.726;2023-09-08T12:55:12;31.90;50.50
2226;DHT22;1119;48.288;8.726;2023-09-08T12:57:41;31.90;50.80
2226;DHT22;1119;48.288;8.726;2023-09-08T13:00:09;32.00;50.20
2226;DHT22;1119;48.288;8.726;2023-09-08T13:02:37;32.10;50.70
2226;DHT22;1119;48.288;8.726;2023-09-08T13:05:04;32.30;49.40
2226;DHT22;1119;48.288;8.726;2023-09-08T13:07:32;32.30;48.90
2226;DHT22;1119;48.288;8.726;2023-09-08T13:09:59;32.50;49.60
2226;DHT22;1119;48.288;8.726;2023-09-08T13:12:25;32.50;46.80
2226;DHT22;1119;48.288;8.726;2023-09-08T13:14:54;32.50;46.70
2226;DHT22;1119;48.288;8.726;2023-09-08T13:17:21;32.60;45.60
2226;DHT22;1119;48.288;8.726;2023-09-08T13:19:49;32.60;46.30
2226;DHT22;1119;48.288;8.726;2023-09-08T13:22:16;32.30;46.50
2226;DHT22;1119;48.288;8.726;2023-09-08T13:24:43;32.10;47.40
2226;DHT22;1119;48.288;8.726;2023-09-08T13:27:10;32.20;50.80
2226;DHT22;1119;48.288;8.726;2023-09-08T13:29:38;31.90;51.50
2226;DHT22;1119;48.288;8.726;2023-09-08T13:32:07;31.60;52.50
2226;DHT22;1119;48.288;8.726;2023-09-08T13:34:35;31.50;53.00
2226;DHT22;1119;48.288;8.726;2023-09-08T13:37:04;31.40;52.80
2226;DHT22;1119;48.288;8.726;2023-09-08T13:39:32;31.30;53.10
2226;DHT22;1119;48.288;8.726;2023-09-08T13:42:00;31.30;53.50
2226;DHT22;1119;48.288;8.726;2023-09-08T13:44:28;31.20;53.90
2226;DHT22;1119;48.288;8.726;2023-09-08T13:46:56;31.20;54.40
2226;DHT22;1119;48.288;8.726;2023-09-08T13:49:26;31.10;54.00
2226;DHT22;1119;48.288;8.726;2023-09-08T13:51:53;31.00;53.70
2226;DHT22;1119;48.288;8.726;2023-09-08T13:54:20;30.90;53.30
2226;DHT22;1119;48.288;8.726;2023-09-08T13:56:57;30.90;52.60
2226;DHT22;1119;48.288;8.726;2023-09-08T13:59:27;30.90;52.90
2226;DHT22;1119;48.288;8.726;2023-09-08T14:01:55;31.00;53.70
2226;DHT22;1119;48.288;8.726;2023-09-08T14:04:25;31.00;53.80
2226;DHT22;1119;48.288;8.726;2023-09-08T14:06:52;31.10;53.50
2226;DHT22;1119;48.288;8.726;2023-09-08T14:09:20;30.90;53.10
2226;DHT22;1119;48.288;8.726;2023-09-08T14:11:47;30.70;53.30
2226;DHT22;1119;48.288;8.726;2023-09-08T14:14:14;30.60;53.00
2226;DHT22;1119;48.288;8.726;2023-09-08T14:16:41;30.40;53.40
2226;DHT22;1119;48.288;8.726;2023-09-08T14:19:09;30.40;54.10
2226;DHT22;1119;48.288;8.726;2023-09-08T14:21:37;30.40;54.10
2226;DHT22;1119;48.288;8.726;2023-09-08T14:24:05;30.40;54.40
2226;DHT22;1119;48.288;8.726;2023-09-08T14:26:33;30.40;53.30
2226;DHT22;1119;48.288;8.726;2023-09-08T14:29:00;30.40;53.90
2226;DHT22;1119;48.288;8.726;2023-09-08T14:31:28;30.40;54.50
2226;DHT22;1119;48.288;8.726;2023-09-08T14:33:55;30.40;53.90
2226;DHT22;1119;48.288;8.726;2023-09-08T14:36:22;30.50;53.40
2226;DHT22;1119;48.288;8.726;2023-09-08T14:38:51;30.60;53.30
2226;DHT22;1119;48.288;8.726;2023-09-08T14:41:18;30.70;53.20
2226;DHT22;1119;48.288;8.726;2023-09-08T14:43:46;30.70;53.20
2226;DHT22;1119;48.288;8.726;2023-09-08T14:46:13;30.70;53.60
2226;DHT22;1119;48.288;8.726;2023-09-08T14:48:40;30.60;53.30
2226;DHT22;1119;48.288;8.726;2023-09-08T14:51:07;30.60;54.00
2226;DHT22;1119;48.288;8.726;2023-09-08T14:53:35;30.50;53.40
2226;DHT22;1119;48.288;8.726;2023-09-08T14:56:03;30.40;53.40
2226;DHT22;1119;48.288;8.726;2023-09-08T14:58:31;30.40;53.80
2226;DHT22;1119;48.288;8.726;2023-09-08T15:01:00;30.40;53.50
2226;DHT22;1119;48.288;8.726;2023-09-08T15:03:31;30.40;54.00
2226;DHT22;1119;48.288;8.726;2023-09-08T15:05:58;30.50;54.90
2226;DHT22;1119;48.288;8.726;2023-09-08T15:08:25;30.40;56.30
2226;DHT22;1119;48.288;8.726;2023-09-08T15:10:53;30.20;57.20
2226;DHT22;1119;48.288;8.726;2023-09-08T15:13:22;30.00;57.20
2226;DHT22;1119;48.288;8.726;2023-09-08T15:15:49;29.90;57.00
2226;DHT22;1119;48.288;8.726;2023-09-08T15:18:16;29.60;57.90
2226;DHT22;1119;48.288;8.726;2023-09-08T15:20:50;29.40;57.90
2226;DHT22;1119;48.288;8.726;2023-09-08T15:23:18;29.20;58.90
2226;DHT22;1119;48.288;8.726;2023-09-08T15:25:51;29.10;59.10
2226;DHT22;1119;48.288;8.726;2023-09-08T15:28:19;28.90;59.20
2226;DHT22;1119;48.288;8.726;2023-09-08T15:30:48;28.80;59.00
2226;DHT22;1119;48.288;8.726;2023-09-08T15:33:16;28.80;59.40
2226;DHT22;1119;48.288;8.726;2023-09-08T15:35:45;28.80;59.20
2226;DHT22;1119;48.288;8.726;2023-09-08T15:38:15;28.90;59.80
2226;DHT22;1119;48.288;8.726;2023-09-08T15:41:15;28.90;59.70
2226;DHT22;1119;48.288;8.726;2023-09-08T15:43:46;28.90;60.00
2226;DHT22;1119;48.288;8.726;2023-09-08T15:46:17;28.80;61.20
2226;DHT22;1119;48.288;8.726;2023-09-08T15:48:45;28.60;63.00
2226;DHT22;1119;48.288;8.726;2023-09-08T15:51:12;28.50;63.40
2226;DHT22;1119;48.288;8.726;2023-09-08T15:53:40;28.40;63.80
2226;DHT22;1119;48.288;8.726;2023-09-08T15:56:08;28.30;64.50
2226;DHT22;1119;48.288;8.726;2023-09-08T15:58:37;28.20;64.80
2226;DHT22;1119;48.288;8.726;2023-09-08T16:01:05;28.10;65.80
2226;DHT22;1119;48.288;8.726;2023-09-08T16:03:35;28.00;66.80
2226;DHT22;1119;48.288;8.726;2023-09-08T16:06:02;27.90;67.40
2226;DHT22;1119;48.288;8.726;2023-09-08T16:08:30;27.80;68.10
2226;DHT22;1119;48.288;8.726;2023-09-08T16:10:59;27.80;67.90
2226;DHT22;1119;48.288;8.726;2023-09-08T16:13:26;27.70;68.50